Pruszkow, Poland
Current Conditions -  °F | °C
As of 3:30 AM on Sunday 21 Dec 2014 (Local Time) from EPWA Reporting Station
Rain Showers Rain Showers  
Wind Chill: 28°   Ceiling: 2000
Heat Index: 37°   Visibility: 6mi
Dew Point: 36°   Wind: 16mph
Humidity: 93%   Direction: 260°W
Pressure: 29.68"   Gusts: NA
Location:  52.22°N, 20.82°E
Report Text: EPWA 210130Z 26014KT 230V300 9999 -SHRA SCT013 BKN020CB 03/02 Q1005 TEMPO BKN015
Loading
Personal Weather Stations






























Interactive Weather Map New forecast layout! Learn more

10-Day Weather Forecast

Advertisements
Track Severe Weather on mobile